This is the latest recevied weather packets stored in our database for station/object KO4RJX-11. If no packets are shown the sender has not sent any weather packets the latest 10 day(s).
| Time | Temp. | Humidity | Pressure | Rain* | Wind** | Luminosity | Snow |
|---|---|---|---|---|---|---|---|
| 1777306984 | 16.11° C | 56% | 1018.8 hPa | 0 mm | - | - | - |
| 1777305252 | 14.44° C | 56% | 1018.8 hPa | 0 mm | - | - | - |
| 1777303783 | 13.33° C | 62% | 1019.2 hPa | 0 mm | - | - | - |
| 1777301652 | 13.33° C | 62% | 1019.2 hPa | 0 mm | - | - | - |
| 1777301252 | 12.78° C | 64% | 1019.5 hPa | 0 mm | - | - | - |
| 1777289253 | 10.56° C | 76% | 1017.8 hPa | 0 mm | - | - | - |
| 1777288852 | 10.56° C | 77% | 1017.8 hPa | 0 mm | - | - | - |
| 1777285252 | 10.56° C | 78% | 1016.5 hPa | 0 mm | - | - | - |
| 1777284852 | 10.56° C | 78% | 1016.5 hPa | 0 mm | - | - | - |
| 1777282052 | 10.56° C | 80% | 1016.1 hPa | 0 mm | - | - | - |
| 1777281252 | 10.56° C | 80% | 1015.8 hPa | 0 mm | - | - | - |
| 1777280052 | 10.56° C | 79% | 1015.8 hPa | 0 mm | - | - | - |
| 1777279653 | 10.56° C | 79% | 1015.8 hPa | 0 mm | - | - | - |
| 1777278852 | 10.56° C | 80% | 1016.1 hPa | 0 mm | - | - | - |
| 1777274052 | 10.56° C | 79% | 1015.8 hPa | 0 mm | - | - | - |
| 1777272853 | 10.56° C | 79% | 1015.8 hPa | 0 mm | - | - | - |
| 1777271253 | 11.11° C | 79% | 1015.8 hPa | 0 mm | - | - | - |
| 1777270852 | 11.11° C | 80% | 1015.8 hPa | 0 mm | - | - | - |
| 1777268852 | 11.11° C | 80% | 1015.8 hPa | 0 mm | - | - | - |
| 1777266453 | 11.11° C | 77% | 1015.8 hPa | 0 mm | - | - | - |
| 1777264852 | 11.11° C | 77% | 1015.8 hPa | 0 mm | - | - | - |
| 1777262452 | 11.11° C | 76% | 1015.8 hPa | 0 mm | - | - | - |
| 1777252452 | 12.22° C | 74% | 1014.4 hPa | 2.29 mm | - | - | - |
| 1777249252 | 12.78° C | 75% | 1013.4 hPa | 2.29 mm | - | - | - |
| 1777248452 | 12.78° C | 77% | 1013.1 hPa | 2.29 mm | - | - | - |
* Rain since midnight (hover to see other rain measurements)
** Current wind speed in m/s (hover to see current wind gust speed)